Time;durP1;ratioP1;P1;durP2;ratioP2;P2;SDS_P1;SDS_P2;PMS_P1;PMS_P2;Temp;Humidity;BMP_temperature;BMP_pressure;BME280_temperature;BME280_humidity;BME280_pressure;Samples;Min_cycle;Max_cycle;Signal;HPM_P1;HPM_P2
2024/03/24 00:01:29;;;;;;;;;;;;;;;;;;5018830;28;19921;-74
2024/03/24 00:03:54;;;;;;;;;;;;;;;;;;5018108;28;20680;-73
2024/03/24 00:06:19;;;;;;;;;;;;;;;;;;5025917;28;20522;-74
2024/03/24 00:08:44;;;;;;;;;;;;;;;;;;5019381;28;19925;-74
2024/03/24 00:11:09;;;;;;;;;;;;;;;;;;5024781;28;19913;-74
2024/03/24 00:13:34;;;;;;;;;;;;;;;;;;5021584;28;20366;-74
2024/03/24 00:16:00;;;;;;;;;;;;;;;;;;5021241;28;19949;-74
2024/03/24 00:18:25;;;;;;;;;;;;;;;;;;5022200;28;19942;-74
2024/03/24 00:20:50;;;;;;;;;;;;;;;;;;5022512;28;19917;-73
2024/03/24 00:23:15;;;;;;;;;;;;;;;;;;5020224;28;19924;-73
2024/03/24 00:25:40;;;;;;;;;;;;;;;;;;5023126;28;19924;-74
2024/03/24 00:28:05;;;;;;;;;;;;;;;;;;5019706;28;19939;-73
2024/03/24 00:30:30;;;;;;;;;;;;;;;;;;5022309;28;20000;-73
2024/03/24 00:32:56;;;;;;;;;;;;;;;;;;5021189;28;20305;-74
2024/03/24 00:35:21;;;;;;;;;;;;;;;;;;5022737;28;19953;-75
2024/03/24 00:37:46;;;;;;;;;;;;;;;;;;5023022;28;19917;-73
2024/03/24 00:40:11;;;;;;;;;;;;;;;;;;5025450;28;19932;-74
2024/03/24 00:42:36;;;;;;;;;;;;;;;;;;5014567;28;19932;-74
2024/03/24 00:45:01;;;;;;;;;;;;;;;;;;5019602;28;19992;-74
2024/03/24 00:47:26;;;;;;;;;;;;;;;;;;5015759;28;20012;-74
2024/03/24 00:49:51;;;;;;;;;;;;;;;;;;5030613;28;19970;-74
2024/03/24 00:52:17;;;;;;;;;;;;;;;;;;5038618;28;19913;-77
2024/03/24 00:54:42;;;;;;;;;;;;;;;;;;5032841;28;20318;-76
2024/03/24 00:57:07;;;;;;;;;;;;;;;;;;5038714;28;20215;-76
2024/03/24 00:59:32;;;;;;;;;;;;;;;;;;5043996;28;19975;-75
2024/03/24 01:01:57;;;;;;;;;;;;;;;;;;5032971;28;20473;-76
2024/03/24 01:04:22;;;;;;;;;;;;;;;;;;5040889;28;19917;-76
2024/03/24 01:06:47;;;;;;;;;;;;;;;;;;5043339;28;19909;-76
2024/03/24 01:09:13;;;;;;;;;;;;;;;;;;5037614;28;20000;-77
2024/03/24 01:11:38;;;;;;;;;;;;;;;;;;5035809;28;19916;-76
2024/03/24 01:14:03;;;;;;;;;;;;;;;;;;5038672;28;19912;-76
2024/03/24 01:16:29;;;;;;;;;;;;;;;;;;5038123;28;19910;-76
2024/03/24 01:18:54;;;;;;;;;;;;;;;;;;5042388;28;20323;-76
2024/03/24 01:21:19;;;;;;;;;;;;;;;;;;5037745;28;20365;-75
2024/03/24 01:23:44;;;;;;;;;;;;;;;;;;5038673;28;19955;-76
2024/03/24 01:26:10;;;;;;;;;;;;;;;;;;5033616;28;19920;-75
2024/03/24 01:28:35;;;;;;;;;;;;;;;;;;5042308;28;19909;-76
2024/03/24 01:31:00;;;;;;;;;;;;;;;;;;5044995;28;19919;-74
2024/03/24 01:33:25;;;;;;;;;;;;;;;;;;5046496;28;19920;-76
2024/03/24 01:35:50;;;;;;;;;;;;;;;;;;5048034;28;19936;-76
2024/03/24 01:38:15;;;;;;;;;;;;;;;;;;5046159;28;19955;-76
2024/03/24 01:40:40;;;;;;;;;;;;;;;;;;5044051;28;20391;-75
2024/03/24 01:43:06;;;;;;;;;;;;;;;;;;5045992;28;20380;-75
2024/03/24 01:45:31;;;;;;;;;;;;;;;;;;5039452;28;19917;-74
2024/03/24 01:47:57;;;;;;;;;;;;;;;;;;5047018;28;19912;-73
2024/03/24 01:50:22;;;;;;;;;;;;;;;;;;5035335;28;20150;-74
2024/03/24 01:52:47;;;;;;;;;;;;;;;;;;5043913;28;20273;-74
2024/03/24 01:55:12;;;;;;;;;;;;;;;;;;5045348;28;19915;-74
2024/03/24 01:57:37;;;;;;;;;;;;;;;;;;5033446;28;20281;-75
2024/03/24 02:00:08;;;;;;;;;;;;;;;;;;5032951;28;20284;-74
2024/03/24 02:02:33;;;;;;;;;;;;;;;;;;5031115;28;19909;-75
2024/03/24 02:04:59;;;;;;;;;;;;;;;;;;5031220;28;20469;-74
2024/03/24 02:07:24;;;;;;;;;;;;;;;;;;5031250;28;19909;-75
2024/03/24 02:09:49;;;;;;;;;;;;;;;;;;5031262;28;19916;-75
2024/03/24 02:12:14;;;;;;;;;;;;;;;;;;5049469;28;19909;-76
2024/03/24 02:14:39;;;;;;;;;;;;;;;;;;5048250;28;20357;-75
2024/03/24 02:17:04;;;;;;;;;;;;;;;;;;5050344;28;19924;-75
2024/03/24 02:19:29;;;;;;;;;;;;;;;;;;5049019;28;20365;-75
2024/03/24 02:21:54;;;;;;;;;;;;;;;;;;5045982;28;19916;-76
2024/03/24 02:24:20;;;;;;;;;;;;;;;;;;5033304;28;19927;-75
2024/03/24 02:26:45;;;;;;;;;;;;;;;;;;5032990;28;19917;-75
2024/03/24 02:29:12;;;;;;;;;;;;;;;;;;5036840;28;19909;-74
2024/03/24 02:31:38;;;;;;;;;;;;;;;;;;5035263;28;19914;-76
2024/03/24 02:34:03;;;;;;;;;;;;;;;;;;5037592;28;19971;-76
2024/03/24 02:36:28;;;;;;;;;;;;;;;;;;5035059;28;20375;-76
2024/03/24 02:38:53;;;;;;;;;;;;;;;;;;5035291;28;20347;-76
2024/03/24 02:41:18;;;;;;;;;;;;;;;;;;5035088;28;19909;-75
2024/03/24 02:43:44;;;;;;;;;;;;;;;;;;5036906;28;20539;-75
2024/03/24 02:46:09;;;;;;;;;;;;;;;;;;5048260;28;20376;-75
2024/03/24 02:48:34;;;;;;;;;;;;;;;;;;5049144;28;19975;-76
2024/03/24 02:50:59;;;;;;;;;;;;;;;;;;5015553;28;19943;-76
2024/03/24 02:53:25;;;;;;;;;;;;;;;;;;5033559;28;19909;-77
2024/03/24 02:55:51;;;;;;;;;;;;;;;;;;5029125;28;19924;-76
2024/03/24 02:58:16;;;;;;;;;;;;;;;;;;5016097;28;19913;-76
2024/03/24 03:00:41;;;;;;;;;;;;;;;;;;5019361;28;19909;-76
2024/03/24 03:03:06;;;;;;;;;;;;;;;;;;5017187;28;20016;-76
2024/03/24 03:05:32;;;;;;;;;;;;;;;;;;5020105;28;20012;-75
2024/03/24 03:07:57;;;;;;;;;;;;;;;;;;5016766;28;19917;-76
2024/03/24 03:10:22;;;;;;;;;;;;;;;;;;5014686;28;19914;-75
2024/03/24 03:12:47;;;;;;;;;;;;;;;;;;5022253;28;20658;-77
2024/03/24 03:15:15;;;;;;;;;;;;;;;;;;5019233;28;19910;-73
2024/03/24 03:17:40;;;;;;;;;;;;;;;;;;5029633;28;19909;-74
2024/03/24 03:20:05;;;;;;;;;;;;;;;;;;5031358;28;19917;-75
2024/03/24 03:22:30;;;;;;;;;;;;;;;;;;5032724;28;20313;-74
2024/03/24 03:24:56;;;;;;;;;;;;;;;;;;5019378;28;19914;-73
2024/03/24 03:27:21;;;;;;;;;;;;;;;;;;5014366;28;19909;-73
2024/03/24 03:29:46;;;;;;;;;;;;;;;;;;5014362;28;19936;-74
2024/03/24 03:32:11;;;;;;;;;;;;;;;;;;5032055;28;20377;-74
2024/03/24 03:34:36;;;;;;;;;;;;;;;;;;5020021;28;19937;-74
2024/03/24 03:37:02;;;;;;;;;;;;;;;;;;5017808;28;19924;-74
2024/03/24 03:39:27;;;;;;;;;;;;;;;;;;5014084;28;19920;-74
2024/03/24 03:41:52;;;;;;;;;;;;;;;;;;5013822;28;20369;-73
2024/03/24 03:44:17;;;;;;;;;;;;;;;;;;5014900;28;19917;-74
2024/03/24 03:46:42;;;;;;;;;;;;;;;;;;5015859;28;19909;-73
2024/03/24 03:49:08;;;;;;;;;;;;;;;;;;5032215;28;20285;-74
2024/03/24 03:51:39;;;;;;;;;;;;;;;;;;5014301;28;19917;-73
2024/03/24 03:54:04;;;;;;;;;;;;;;;;;;5018365;28;19910;-74
2024/03/24 03:56:30;;;;;;;;;;;;;;;;;;5020045;28;19909;-73
2024/03/24 03:58:55;;;;;;;;;;;;;;;;;;5032396;28;20330;-74
2024/03/24 04:01:20;;;;;;;;;;;;;;;;;;5031943;28;19909;-73
2024/03/24 04:03:45;;;;;;;;;;;;;;;;;;5031600;28;19917;-74
2024/03/24 04:06:11;;;;;;;;;;;;;;;;;;5031789;28;19927;-74
2024/03/24 04:08:36;;;;;;;;;;;;;;;;;;5013963;28;19921;-73
2024/03/24 04:11:01;;;;;;;;;;;;;;;;;;5018877;28;20269;-72
2024/03/24 04:13:26;;;;;;;;;;;;;;;;;;5020652;28;19975;-73
2024/03/24 04:15:51;;;;;;;;;;;;;;;;;;5013579;28;20404;-71
2024/03/24 04:18:16;;;;;;;;;;;;;;;;;;5013034;28;19913;-72
2024/03/24 04:20:41;;;;;;;;;;;;;;;;;;5024252;28;19913;-72
2024/03/24 04:23:06;;;;;;;;;;;;;;;;;;5012942;28;19956;-71
2024/03/24 04:25:32;;;;;;;;;;;;;;;;;;5026049;28;19917;-73
2024/03/24 04:27:57;;;;;;;;;;;;;;;;;;5015724;28;19936;-73
2024/03/24 04:30:22;;;;;;;;;;;;;;;;;;5021746;28;19916;-73
2024/03/24 04:32:47;;;;;;;;;;;;;;;;;;5013010;28;20024;-73
2024/03/24 04:35:12;;;;;;;;;;;;;;;;;;5013202;28;19917;-73
2024/03/24 04:37:38;;;;;;;;;;;;;;;;;;5012981;28;19932;-73
2024/03/24 04:40:06;;;;;;;;;;;;;;;;;;5012539;28;19909;-73
2024/03/24 04:42:31;;;;;;;;;;;;;;;;;;5016312;28;19971;-73
2024/03/24 04:44:56;;;;;;;;;;;;;;;;;;5015835;28;20340;-73
2024/03/24 04:47:21;;;;;;;;;;;;;;;;;;5011299;28;19916;-73
2024/03/24 04:49:46;;;;;;;;;;;;;;;;;;5025963;28;19928;-73
2024/03/24 04:52:11;;;;;;;;;;;;;;;;;;5032113;28;19924;-73
2024/03/24 04:54:39;;;;;;;;;;;;;;;;;;5033184;28;20416;-72
2024/03/24 04:57:04;;;;;;;;;;;;;;;;;;5049358;28;19909;-73
2024/03/24 04:59:29;;;;;;;;;;;;;;;;;;5050912;28;19913;-71
2024/03/24 05:01:54;;;;;;;;;;;;;;;;;;5036207;28;19909;-72
2024/03/24 05:04:19;;;;;;;;;;;;;;;;;;5032317;28;19916;-72
2024/03/24 05:06:44;;;;;;;;;;;;;;;;;;5035249;28;19992;-72
2024/03/24 05:09:09;;;;;;;;;;;;;;;;;;5032155;28;20387;-71
2024/03/24 05:11:34;;;;;;;;;;;;;;;;;;5030634;28;19916;-72
2024/03/24 05:14:00;;;;;;;;;;;;;;;;;;5044077;28;19935;-73
2024/03/24 05:16:31;;;;;;;;;;;;;;;;;;5050918;28;20459;-73
2024/03/24 05:18:56;;;;;;;;;;;;;;;;;;5035860;28;20281;-73
2024/03/24 05:21:22;;;;;;;;;;;;;;;;;;5043769;28;20534;-73
2024/03/24 05:23:47;;;;;;;;;;;;;;;;;;5032728;28;19909;-72
2024/03/24 05:26:12;;;;;;;;;;;;;;;;;;5050476;28;19921;-72
2024/03/24 05:28:37;;;;;;;;;;;;;;;;;;5047689;28;20020;-72
2024/03/24 05:31:02;;;;;;;;;;;;;;;;;;5034245;28;19913;-71
2024/03/24 05:33:27;;;;;;;;;;;;;;;;;;5036579;28;19943;-72
2024/03/24 05:35:53;;;;;;;;;;;;;;;;;;5037930;28;19917;-73
2024/03/24 05:38:18;;;;;;;;;;;;;;;;;;5034510;28;20336;-72
2024/03/24 05:40:43;;;;;;;;;;;;;;;;;;5025584;28;19913;-72
2024/03/24 05:43:08;;;;;;;;;;;;;;;;;;5035522;28;20365;-72
2024/03/24 05:45:34;;;;;;;;;;;;;;;;;;5032244;28;19921;-73
2024/03/24 05:47:59;;;;;;;;;;;;;;;;;;5034968;28;19913;-73
2024/03/24 05:50:24;;;;;;;;;;;;;;;;;;5030553;28;20374;-72
2024/03/24 05:52:49;;;;;;;;;;;;;;;;;;5018169;28;19960;-73
2024/03/24 05:55:15;;;;;;;;;;;;;;;;;;5030451;28;19935;-72
2024/03/24 05:57:40;;;;;;;;;;;;;;;;;;5030026;28;19917;-72
2024/03/24 06:00:06;;;;;;;;;;;;;;;;;;5030364;28;19913;-72
2024/03/24 06:02:31;;;;;;;;;;;;;;;;;;5033728;28;19910;-72
2024/03/24 06:04:56;;;;;;;;;;;;;;;;;;5023683;28;20022;-72
2024/03/24 06:07:22;;;;;;;;;;;;;;;;;;5028869;28;19915;-72
2024/03/24 06:09:47;;;;;;;;;;;;;;;;;;5021891;28;19909;-72
2024/03/24 06:12:13;;;;;;;;;;;;;;;;;;5015332;28;20009;-72
2024/03/24 06:14:38;;;;;;;;;;;;;;;;;;5027504;28;19968;-73
2024/03/24 06:17:03;;;;;;;;;;;;;;;;;;5023323;28;19913;-72
2024/03/24 06:19:28;;;;;;;;;;;;;;;;;;5034253;28;19909;-71
2024/03/24 06:21:53;;;;;;;;;;;;;;;;;;5020727;28;20365;-71
2024/03/24 06:24:18;;;;;;;;;;;;;;;;;;5015435;28;19910;-72
2024/03/24 06:26:43;;;;;;;;;;;;;;;;;;5026222;28;19909;-72
2024/03/24 06:29:08;;;;;;;;;;;;;;;;;;5024676;28;20358;-73
2024/03/24 06:31:34;;;;;;;;;;;;;;;;;;5015184;28;19910;-73
2024/03/24 06:34:00;;;;;;;;;;;;;;;;;;5031265;28;19910;-71
2024/03/24 06:36:25;;;;;;;;;;;;;;;;;;5019859;28;19960;-73
2024/03/24 06:38:50;;;;;;;;;;;;;;;;;;5015318;28;20611;-72
2024/03/24 06:41:15;;;;;;;;;;;;;;;;;;5015078;28;20379;-72
2024/03/24 06:43:43;;;;;;;;;;;;;;;;;;5028455;28;19909;-72
2024/03/24 06:46:09;;;;;;;;;;;;;;;;;;5033507;28;20027;-72
2024/03/24 06:48:34;;;;;;;;;;;;;;;;;;5035340;28;20421;-73
2024/03/24 06:50:59;;;;;;;;;;;;;;;;;;5033527;28;20385;-72
2024/03/24 06:53:24;;;;;;;;;;;;;;;;;;5023207;28;19913;-71
2024/03/24 06:55:49;;;;;;;;;;;;;;;;;;5014604;28;20405;-72
2024/03/24 06:58:15;;;;;;;;;;;;;;;;;;5025630;28;19916;-72
2024/03/24 07:00:40;;;;;;;;;;;;;;;;;;5022446;28;19910;-72
2024/03/24 07:03:05;;;;;;;;;;;;;;;;;;5014422;28;19916;-72
2024/03/24 07:05:30;;;;;;;;;;;;;;;;;;5027911;28;19961;-72
2024/03/24 07:07:55;;;;;;;;;;;;;;;;;;5015134;28;19921;-72
2024/03/24 07:10:20;;;;;;;;;;;;;;;;;;5016354;28;19964;-73
2024/03/24 07:12:45;;;;;;;;;;;;;;;;;;5015559;28;19920;-72
2024/03/24 07:15:11;;;;;;;;;;;;;;;;;;5032724;28;19959;-74
2024/03/24 07:17:36;;;;;;;;;;;;;;;;;;5030993;28;19920;-71
2024/03/24 07:20:01;;;;;;;;;;;;;;;;;;5032841;28;19917;-73
2024/03/24 07:22:26;;;;;;;;;;;;;;;;;;5019012;28;20316;-72
2024/03/24 07:24:51;;;;;;;;;;;;;;;;;;5015363;28;19948;-71
2024/03/24 07:27:16;;;;;;;;;;;;;;;;;;5019567;28;19955;-71
2024/03/24 07:29:41;;;;;;;;;;;;;;;;;;5016354;28;19917;-72
2024/03/24 07:32:07;;;;;;;;;;;;;;;;;;5018937;28;19919;-72
2024/03/24 07:34:32;;;;;;;;;;;;;;;;;;5023392;28;20301;-72
2024/03/24 07:36:57;;;;;;;;;;;;;;;;;;5021476;28;19949;-72
2024/03/24 07:39:25;;;;;;;;;;;;;;;;;;5013911;28;19988;-72
2024/03/24 07:41:50;;;;;;;;;;;;;;;;;;5014268;28;20438;-72
2024/03/24 07:44:16;;;;;;;;;;;;;;;;;;5025167;28;20003;-73
2024/03/24 07:46:41;;;;;;;;;;;;;;;;;;5032006;28;19909;-72
2024/03/24 07:49:06;;;;;;;;;;;;;;;;;;5031960;28;19932;-72
2024/03/24 07:51:31;;;;;;;;;;;;;;;;;;5023825;28;19980;-72
2024/03/24 07:53:57;;;;;;;;;;;;;;;;;;5016154;28;19963;-73
2024/03/24 07:56:22;;;;;;;;;;;;;;;;;;5023567;28;19913;-73
2024/03/24 07:58:47;;;;;;;;;;;;;;;;;;5021425;28;20000;-73
2024/03/24 08:01:12;;;;;;;;;;;;;;;;;;5016742;28;19957;-73
2024/03/24 08:03:37;;;;;;;;;;;;;;;;;;5020551;28;19925;-73
2024/03/24 08:06:02;;;;;;;;;;;;;;;;;;5013247;28;19940;-73
2024/03/24 08:08:27;;;;;;;;;;;;;;;;;;5016662;28;20433;-72
2024/03/24 08:10:54;;;;;;;;;;;;;;;;;;5016897;28;20359;-72
2024/03/24 08:13:19;;;;;;;;;;;;;;;;;;5019392;28;19918;-72
2024/03/24 08:15:44;;;;;;;;;;;;;;;;;;5014439;28;19920;-72
2024/03/24 08:18:10;;;;;;;;;;;;;;;;;;5014839;28;19936;-72
2024/03/24 08:20:35;;;;;;;;;;;;;;;;;;5021948;28;20326;-72
2024/03/24 08:23:00;;;;;;;;;;;;;;;;;;5010253;28;19960;-72
2024/03/24 08:25:25;;;;;;;;;;;;;;;;;;5018419;28;20301;-72
2024/03/24 08:27:51;;;;;;;;;;;;;;;;;;5013511;28;19922;-72
2024/03/24 08:30:16;;;;;;;;;;;;;;;;;;5010322;28;19917;-72
2024/03/24 08:32:41;;;;;;;;;;;;;;;;;;5017786;28;20428;-73
2024/03/24 08:35:07;;;;;;;;;;;;;;;;;;5011738;28;19941;-73
2024/03/24 08:37:32;;;;;;;;;;;;;;;;;;5011956;28;20587;-73
2024/03/24 08:39:57;;;;;;;;;;;;;;;;;;5012598;28;19918;-73
2024/03/24 08:42:23;;;;;;;;;;;;;;;;;;5016273;28;19920;-73
2024/03/24 08:44:48;;;;;;;;;;;;;;;;;;5010105;28;20449;-73
2024/03/24 08:47:13;;;;;;;;;;;;;;;;;;5028392;28;19917;-72
2024/03/24 08:49:38;;;;;;;;;;;;;;;;;;5028887;28;19925;-72
2024/03/24 08:52:03;;;;;;;;;;;;;;;;;;5036146;28;19967;-73
2024/03/24 08:54:28;;;;;;;;;;;;;;;;;;5033666;28;19913;-73
2024/03/24 08:56:54;;;;;;;;;;;;;;;;;;5035851;28;19913;-73
2024/03/24 08:59:20;;;;;;;;;;;;;;;;;;5035844;28;20016;-72
2024/03/24 09:01:45;;;;;;;;;;;;;;;;;;5037993;28;20448;-72
2024/03/24 09:04:11;;;;;;;;;;;;;;;;;;5038422;28;20007;-72
2024/03/24 09:06:36;;;;;;;;;;;;;;;;;;5035117;28;20027;-73
2024/03/24 09:09:02;;;;;;;;;;;;;;;;;;5035467;28;20301;-73
2024/03/24 09:11:28;;;;;;;;;;;;;;;;;;5035061;28;19917;-73
2024/03/24 09:13:53;;;;;;;;;;;;;;;;;;5041541;28;19913;-72
2024/03/24 09:16:18;;;;;;;;;;;;;;;;;;5038438;28;19959;-73
2024/03/24 09:18:43;;;;;;;;;;;;;;;;;;5033557;28;19917;-73
2024/03/24 09:21:10;;;;;;;;;;;;;;;;;;5013880;28;19921;-73
2024/03/24 09:23:36;;;;;;;;;;;;;;;;;;5032506;28;20002;-72
2024/03/24 09:26:01;;;;;;;;;;;;;;;;;;5034553;28;19917;-72
2024/03/24 09:28:26;;;;;;;;;;;;;;;;;;5039142;28;20657;-72
2024/03/24 09:30:51;;;;;;;;;;;;;;;;;;5031531;28;19928;-72
2024/03/24 09:33:16;;;;;;;;;;;;;;;;;;5037797;28;19913;-74
2024/03/24 09:35:43;;;;;;;;;;;;;;;;;;5029826;28;19913;-71
2024/03/24 09:38:08;;;;;;;;;;;;;;;;;;5030577;28;20365;-73
2024/03/24 09:40:33;;;;;;;;;;;;;;;;;;5031305;28;19960;-72
2024/03/24 09:42:59;;;;;;;;;;;;;;;;;;5043775;28;20470;-72
2024/03/24 09:45:24;;;;;;;;;;;;;;;;;;5034539;28;19924;-73
2024/03/24 09:47:49;;;;;;;;;;;;;;;;;;5032546;28;20266;-73
2024/03/24 09:50:14;;;;;;;;;;;;;;;;;;5024122;28;19929;-76
2024/03/24 09:52:39;;;;;;;;;;;;;;;;;;5025563;28;20373;-75
2024/03/24 09:55:04;;;;;;;;;;;;;;;;;;5021555;28;19913;-75
2024/03/24 09:57:29;;;;;;;;;;;;;;;;;;5013722;28;20445;-74
2024/03/24 09:59:55;;;;;;;;;;;;;;;;;;5017490;28;19920;-73
2024/03/24 10:02:20;;;;;;;;;;;;;;;;;;5011902;28;19921;-73
2024/03/24 10:04:45;;;;;;;;;;;;;;;;;;5008966;28;20002;-73
2024/03/24 10:07:10;;;;;;;;;;;;;;;;;;5013444;28;19914;-73
2024/03/24 10:09:36;;;;;;;;;;;;;;;;;;5011307;28;20294;-72
2024/03/24 10:12:01;;;;;;;;;;;;;;;;;;5016843;28;20294;-72
2024/03/24 10:14:26;;;;;;;;;;;;;;;;;;5012470;28;20092;-72
2024/03/24 10:16:51;;;;;;;;;;;;;;;;;;5016055;28;19996;-72
2024/03/24 10:19:16;;;;;;;;;;;;;;;;;;5019413;28;20670;-71
2024/03/24 10:21:41;;;;;;;;;;;;;;;;;;5011697;28;19924;-71
2024/03/24 10:24:07;;;;;;;;;;;;;;;;;;5015950;28;19941;-71
2024/03/24 10:26:32;;;;;;;;;;;;;;;;;;5021965;28;19970;-72
2024/03/24 10:28:57;;;;;;;;;;;;;;;;;;5012828;28;19929;-72
2024/03/24 10:31:22;;;;;;;;;;;;;;;;;;5015904;28;20295;-72
2024/03/24 10:33:47;;;;;;;;;;;;;;;;;;5015357;28;19917;-72
2024/03/24 10:36:12;;;;;;;;;;;;;;;;;;5008954;28;19914;-71
2024/03/24 10:38:38;;;;;;;;;;;;;;;;;;5019336;28;19968;-72
2024/03/24 10:41:03;;;;;;;;;;;;;;;;;;5016361;28;19914;-71
2024/03/24 10:43:28;;;;;;;;;;;;;;;;;;5018753;28;19953;-72
2024/03/24 10:45:53;;;;;;;;;;;;;;;;;;5020919;28;19917;-72
2024/03/24 10:48:19;;;;;;;;;;;;;;;;;;5016164;28;19924;-73
2024/03/24 10:50:44;;;;;;;;;;;;;;;;;;5040792;28;19929;-72
2024/03/24 10:53:09;;;;;;;;;;;;;;;;;;5035248;28;20445;-72
2024/03/24 10:55:34;;;;;;;;;;;;;;;;;;5033501;28;20381;-72
2024/03/24 10:57:59;;;;;;;;;;;;;;;;;;5039381;28;19920;-73
2024/03/24 11:00:28;;;;;;;;;;;;;;;;;;5037031;28;19913;-72
2024/03/24 11:02:53;;;;;;;;;;;;;;;;;;5043513;28;19917;-72
2024/03/24 11:05:18;;;;;;;;;;;;;;;;;;5042112;28;20368;-73
2024/03/24 11:07:43;;;;;;;;;;;;;;;;;;5039337;28;20348;-73
2024/03/24 11:10:08;;;;;;;;;;;;;;;;;;5035082;28;20008;-72
2024/03/24 11:12:33;;;;;;;;;;;;;;;;;;5034232;28;19935;-72
2024/03/24 11:14:59;;;;;;;;;;;;;;;;;;5039632;28;20004;-72
2024/03/24 11:17:24;;;;;;;;;;;;;;;;;;5031228;28;19921;-72
2024/03/24 11:19:50;;;;;;;;;;;;;;;;;;5040859;28;19917;-74
2024/03/24 11:22:15;;;;;;;;;;;;;;;;;;5043372;28;19917;-74
2024/03/24 11:24:40;;;;;;;;;;;;;;;;;;5037360;28;19994;-73
2024/03/24 11:27:08;;;;;;;;;;;;;;;;;;5034370;28;20019;-75
2024/03/24 11:29:33;;;;;;;;;;;;;;;;;;5040294;28;19917;-76
2024/03/24 11:31:58;;;;;;;;;;;;;;;;;;5038495;28;19924;-76
2024/03/24 11:34:23;;;;;;;;;;;;;;;;;;5036945;28;19983;-76
2024/03/24 11:36:50;;;;;;;;;;;;;;;;;;5040914;28;19916;-76
2024/03/24 11:39:15;;;;;;;;;;;;;;;;;;5035313;28;19912;-76
2024/03/24 11:41:40;;;;;;;;;;;;;;;;;;5039504;28;19923;-76
2024/03/24 11:44:05;;;;;;;;;;;;;;;;;;5034077;28;19952;-76
2024/03/24 11:46:30;;;;;;;;;;;;;;;;;;5044517;28;19921;-76
2024/03/24 11:48:56;;;;;;;;;;;;;;;;;;5033447;28;19956;-75
2024/03/24 11:51:21;;;;;;;;;;;;;;;;;;5034372;28;19917;-73
2024/03/24 11:53:46;;;;;;;;;;;;;;;;;;5035910;28;19917;-76
2024/03/24 11:56:12;;;;;;;;;;;;;;;;;;5041312;28;19920;-76
2024/03/24 11:58:37;;;;;;;;;;;;;;;;;;5014076;28;19919;-75
2024/03/24 12:01:03;;;;;;;;;;;;;;;;;;5039424;28;19962;-74
2024/03/24 12:03:28;;;;;;;;;;;;;;;;;;5033831;28;19913;-75
2024/03/24 12:05:54;;;;;;;;;;;;;;;;;;5033837;28;19924;-75
2024/03/24 12:08:19;;;;;;;;;;;;;;;;;;5041966;28;19913;-75
2024/03/24 12:10:44;;;;;;;;;;;;;;;;;;5037324;28;20000;-75
2024/03/24 12:13:09;;;;;;;;;;;;;;;;;;5041837;28;19919;-76
2024/03/24 12:15:35;;;;;;;;;;;;;;;;;;5038989;28;19920;-76
2024/03/24 12:18:00;;;;;;;;;;;;;;;;;;5036639;28;19913;-76
2024/03/24 12:20:25;;;;;;;;;;;;;;;;;;5034544;28;20550;-76
2024/03/24 12:22:50;;;;;;;;;;;;;;;;;;5033048;28;20413;-76
2024/03/24 12:25:15;;;;;;;;;;;;;;;;;;5031934;28;19967;-75
2024/03/24 12:27:40;;;;;;;;;;;;;;;;;;5031859;28;20562;-75
2024/03/24 12:30:05;;;;;;;;;;;;;;;;;;5032223;28;19920;-75
2024/03/24 12:32:31;;;;;;;;;;;;;;;;;;5035129;28;20063;-76
2024/03/24 12:34:56;;;;;;;;;;;;;;;;;;5034785;28;19990;-75
2024/03/24 12:37:21;;;;;;;;;;;;;;;;;;5029661;28;19920;-73
2024/03/24 12:39:46;;;;;;;;;;;;;;;;;;5036574;28;19913;-73
2024/03/24 12:42:11;;;;;;;;;;;;;;;;;;5036850;28;19913;-73
2024/03/24 12:44:36;;;;;;;;;;;;;;;;;;5034571;28;19917;-72
2024/03/24 12:47:01;;;;;;;;;;;;;;;;;;5041860;28;19921;-73
2024/03/24 12:49:26;;;;;;;;;;;;;;;;;;5023784;28;20000;-73
2024/03/24 12:51:52;;;;;;;;;;;;;;;;;;5022234;28;20384;-73
2024/03/24 12:54:17;;;;;;;;;;;;;;;;;;5027353;28;19920;-74
2024/03/24 12:56:42;;;;;;;;;;;;;;;;;;5010056;28;19913;-73
2024/03/24 12:59:07;;;;;;;;;;;;;;;;;;5011428;28;20437;-73
2024/03/24 13:01:32;;;;;;;;;;;;;;;;;;5016005;28;19910;-73
2024/03/24 13:03:57;;;;;;;;;;;;;;;;;;5012507;28;19948;-73
2024/03/24 13:06:22;;;;;;;;;;;;;;;;;;5012823;28;19917;-71
2024/03/24 13:08:48;;;;;;;;;;;;;;;;;;5018985;28;19913;-73
2024/03/24 13:11:16;;;;;;;;;;;;;;;;;;5014306;28;19948;-73
2024/03/24 13:13:41;;;;;;;;;;;;;;;;;;5018509;28;20376;-73
2024/03/24 13:16:07;;;;;;;;;;;;;;;;;;5013077;28;20466;-73
2024/03/24 13:18:32;;;;;;;;;;;;;;;;;;4996925;28;20001;-73
2024/03/24 13:20:58;;;;;;;;;;;;;;;;;;5013493;28;20008;-74
2024/03/24 13:23:23;;;;;;;;;;;;;;;;;;5017259;28;19975;-73
2024/03/24 13:25:48;;;;;;;;;;;;;;;;;;5027065;28;19917;-73
2024/03/24 13:28:17;;;;;;;;;;;;;;;;;;5014454;28;19940;-73
2024/03/24 13:30:43;;;;;;;;;;;;;;;;;;5013883;28;19960;-73
2024/03/24 13:33:08;;;;;;;;;;;;;;;;;;5017677;28;19914;-74
2024/03/24 13:35:33;;;;;;;;;;;;;;;;;;5018884;28;19917;-73
2024/03/24 13:37:58;;;;;;;;;;;;;;;;;;5011723;28;19956;-71
2024/03/24 13:40:23;;;;;;;;;;;;;;;;;;5012924;28;19921;-73
2024/03/24 13:42:48;;;;;;;;;;;;;;;;;;5013780;28;19919;-72
2024/03/24 13:45:13;;;;;;;;;;;;;;;;;;5014372;28;19917;-74
2024/03/24 13:47:39;;;;;;;;;;;;;;;;;;5013400;28;19921;-73
2024/03/24 13:50:04;;;;;;;;;;;;;;;;;;5028661;28;19929;-74
2024/03/24 13:52:29;;;;;;;;;;;;;;;;;;5029990;28;20385;-74
2024/03/24 13:54:54;;;;;;;;;;;;;;;;;;5043474;28;20670;-74
2024/03/24 13:57:19;;;;;;;;;;;;;;;;;;5039092;28;19913;-74
2024/03/24 13:59:45;;;;;;;;;;;;;;;;;;5029915;28;19913;-74
2024/03/24 14:02:10;;;;;;;;;;;;;;;;;;5031043;28;19955;-74
2024/03/24 14:04:35;;;;;;;;;;;;;;;;;;5032205;28;19940;-73
2024/03/24 14:07:00;;;;;;;;;;;;;;;;;;5032768;28;19971;-71
2024/03/24 14:09:25;;;;;;;;;;;;;;;;;;5028407;28;19921;-72
2024/03/24 14:11:50;;;;;;;;;;;;;;;;;;5035711;28;20580;-71
2024/03/24 14:14:15;;;;;;;;;;;;;;;;;;5034916;28;19991;-71
2024/03/24 14:16:41;;;;;;;;;;;;;;;;;;5028271;28;19980;-72
2024/03/24 14:19:09;;;;;;;;;;;;;;;;;;5033205;28;19949;-72
2024/03/24 14:21:34;;;;;;;;;;;;;;;;;;5036845;28;19919;-72
2024/03/24 14:23:59;;;;;;;;;;;;;;;;;;5041495;28;19913;-71
2024/03/24 14:26:24;;;;;;;;;;;;;;;;;;5034591;28;19960;-72
2024/03/24 14:28:50;;;;;;;;;;;;;;;;;;5033375;28;19909;-72
2024/03/24 14:31:15;;;;;;;;;;;;;;;;;;5035663;28;19913;-72
2024/03/24 14:33:40;;;;;;;;;;;;;;;;;;5040921;28;19986;-71
2024/03/24 14:36:06;;;;;;;;;;;;;;;;;;5045863;28;19956;-72
2024/03/24 14:38:31;;;;;;;;;;;;;;;;;;5042903;28;19913;-72
2024/03/24 14:40:56;;;;;;;;;;;;;;;;;;5036027;28;19917;-72
2024/03/24 14:43:21;;;;;;;;;;;;;;;;;;5035688;28;19944;-72
2024/03/24 14:45:46;;;;;;;;;;;;;;;;;;5032820;28;19995;-72
2024/03/24 14:48:12;;;;;;;;;;;;;;;;;;5033875;28;19974;-72
2024/03/24 14:50:37;;;;;;;;;;;;;;;;;;5018052;28;20312;-72
2024/03/24 14:53:02;;;;;;;;;;;;;;;;;;5011938;28;20780;-72
2024/03/24 14:55:27;;;;;;;;;;;;;;;;;;5016738;28;19913;-73
2024/03/24 14:57:53;;;;;;;;;;;;;;;;;;5018361;28;19920;-74
2024/03/24 15:00:19;;;;;;;;;;;;;;;;;;5025017;28;20289;-73
2024/03/24 15:02:44;;;;;;;;;;;;;;;;;;5014909;28;20728;-73
2024/03/24 15:05:09;;;;;;;;;;;;;;;;;;5022132;28;19917;-73
2024/03/24 15:07:35;;;;;;;;;;;;;;;;;;5022120;28;20110;-73
2024/03/24 15:10:00;;;;;;;;;;;;;;;;;;5016635;28;19918;-73
2024/03/24 15:12:25;;;;;;;;;;;;;;;;;;5015160;28;19917;-73
2024/03/24 15:14:50;;;;;;;;;;;;;;;;;;5016960;28;19912;-74
2024/03/24 15:17:15;;;;;;;;;;;;;;;;;;5028229;28;20550;-73
2024/03/24 15:19:40;;;;;;;;;;;;;;;;;;5019117;28;19914;-73
2024/03/24 15:22:05;;;;;;;;;;;;;;;;;;5017550;28;19913;-75
2024/03/24 15:24:31;;;;;;;;;;;;;;;;;;5017910;28;19914;-74
2024/03/24 15:26:56;;;;;;;;;;;;;;;;;;5013200;28;19924;-74
2024/03/24 15:29:23;;;;;;;;;;;;;;;;;;5023481;28;19913;-75
2024/03/24 15:31:48;;;;;;;;;;;;;;;;;;5025457;28;19921;-75
2024/03/24 15:34:13;;;;;;;;;;;;;;;;;;5020442;28;19979;-75
2024/03/24 15:36:38;;;;;;;;;;;;;;;;;;5028121;28;19940;-76
2024/03/24 15:39:03;;;;;;;;;;;;;;;;;;5021251;28;19959;-73
2024/03/24 15:41:29;;;;;;;;;;;;;;;;;;5021177;28;19936;-72
2024/03/24 15:43:54;;;;;;;;;;;;;;;;;;5021479;28;20397;-73
2024/03/24 15:46:23;;;;;;;;;;;;;;;;;;5016888;28;20352;-74
2024/03/24 15:48:48;;;;;;;;;;;;;;;;;;5017297;28;19921;-74
2024/03/24 15:51:13;;;;;;;;;;;;;;;;;;5033430;28;20019;-75
2024/03/24 15:53:38;;;;;;;;;;;;;;;;;;5048101;28;19916;-74
2024/03/24 15:56:04;;;;;;;;;;;;;;;;;;5036657;28;19924;-74
2024/03/24 15:58:31;;;;;;;;;;;;;;;;;;5040280;28;19909;-74
2024/03/24 16:00:57;;;;;;;;;;;;;;;;;;5033228;28;20012;-75
2024/03/24 16:03:23;;;;;;;;;;;;;;;;;;5034429;28;19916;-74
2024/03/24 16:05:48;;;;;;;;;;;;;;;;;;5046922;28;20280;-73
2024/03/24 16:08:13;;;;;;;;;;;;;;;;;;5051360;28;20064;-72
2024/03/24 16:10:39;;;;;;;;;;;;;;;;;;5033820;28;19910;-73
2024/03/24 16:13:04;;;;;;;;;;;;;;;;;;5033606;28;19913;-72
2024/03/24 16:15:29;;;;;;;;;;;;;;;;;;5032917;28;19909;-70
2024/03/24 16:17:54;;;;;;;;;;;;;;;;;;5036294;28;20011;-71
2024/03/24 16:20:20;;;;;;;;;;;;;;;;;;5044062;28;19909;-71
2024/03/24 16:22:45;;;;;;;;;;;;;;;;;;5047351;28;19917;-71
2024/03/24 16:25:11;;;;;;;;;;;;;;;;;;5051367;28;19913;-71
2024/03/24 16:27:36;;;;;;;;;;;;;;;;;;5032623;28;20550;-72
2024/03/24 16:30:01;;;;;;;;;;;;;;;;;;5032558;28;19955;-71
2024/03/24 16:32:26;;;;;;;;;;;;;;;;;;5033003;28;19916;-71